Time;durP1;ratioP1;P1;durP2;ratioP2;P2;SDS_P1;SDS_P2;PMS_P1;PMS_P2;Temp;Humidity;BMP_temperature;BMP_pressure;BME280_temperature;BME280_humidity;BME280_pressure;Samples;Min_cycle;Max_cycle;Signal;HPM_P1;HPM_P2
2022/01/30 00:00:45;;;;;;;3.08;2.88;;;17.70;63.40;;;;;;4957209;28;20515;-20
2022/01/30 00:03:11;;;;;;;3.47;3.17;;;17.70;63.50;;;;;;4955805;28;20058;-19
2022/01/30 00:05:37;;;;;;;2.97;2.78;;;17.70;63.40;;;;;;4957945;28;20046;-21
2022/01/30 00:08:02;;;;;;;3.35;3.10;;;17.70;63.50;;;;;;4957267;28;20051;-20
2022/01/30 00:10:30;;;;;;;3.22;2.92;;;17.70;63.50;;;;;;4957525;28;20311;-20
2022/01/30 00:12:59;;;;;;;2.80;2.60;;;17.70;63.50;;;;;;4957054;28;20510;-21
2022/01/30 00:18:38;;;;;;;2.75;2.55;;;17.70;63.50;;;;;;4954024;28;20051;-20
2022/01/30 00:21:16;;;;;;;2.45;2.35;;;17.60;63.50;;;;;;4950221;28;20039;-21
2022/01/30 00:23:56;;;;;;;2.17;2.08;;;17.60;63.40;;;;;;4952625;28;20063;-20
2022/01/30 00:26:27;;;;;;;3.10;2.90;;;17.60;63.40;;;;;;4957486;28;20082;-20
2022/01/30 00:28:53;;;;;;;2.65;2.47;;;17.60;64.40;;;;;;4955694;28;20078;-21
2022/01/30 00:31:20;;;;;;;2.88;2.67;;;17.60;63.50;;;;;;4955268;28;20067;-20
2022/01/30 00:33:46;;;;;;;2.67;2.47;;;17.60;63.40;;;;;;4955900;28;20051;-20
2022/01/30 00:36:12;;;;;;;2.75;2.55;;;17.60;63.40;;;;;;4956882;28;20066;-20
2022/01/30 00:38:37;;;;;;;2.95;2.75;;;17.60;63.40;;;;;;4956877;28;20105;-20
2022/01/30 00:41:03;;;;;;;2.40;2.30;;;17.70;63.30;;;;;;4957170;28;20452;-20
2022/01/30 00:43:28;;;;;;;2.80;2.60;;;17.70;63.10;;;;;;4956565;28;20051;-21
2022/01/30 00:45:54;;;;;;;2.45;2.35;;;17.70;63.10;;;;;;4955697;28;20408;-20
2022/01/30 00:48:19;;;;;;;2.60;2.40;;;17.70;64.00;;;;;;4957007;28;20489;-20
2022/01/30 00:50:45;;;;;;;2.25;2.15;;;17.70;63.20;;;;;;4955633;28;20043;-21
2022/01/30 00:53:11;;;;;;;2.55;2.35;;;17.70;63.10;;;;;;4955420;28;20074;-21
2022/01/30 00:55:37;;;;;;;2.13;2.03;;;17.70;63.10;;;;;;4953337;28;20490;-21
2022/01/30 00:58:02;;;;;;;2.20;2.10;;;17.60;63.20;;;;;;4957116;28;20058;-20
2022/01/30 01:00:29;;;;;;;2.13;2.03;;;17.60;63.30;;;;;;4956658;28;20100;-21
2022/01/30 01:02:54;;;;;;;2.15;2.05;;;17.60;63.40;;;;;;4938677;28;20047;-20
2022/01/30 01:05:20;;;;;;;2.40;2.30;;;17.60;63.10;;;;;;4956734;28;20523;-19
2022/01/30 01:07:48;;;;;;;2.20;2.10;;;17.60;63.30;;;;;;4956402;28;20051;-20
2022/01/30 01:23:51;;;;;;;2.10;2.00;;;17.60;63.20;;;;;;4954816;28;20082;-20
2022/01/30 01:26:18;;;;;;;1.90;1.80;;;17.60;63.10;;;;;;4954275;28;20040;-19
2022/01/30 01:28:44;;;;;;;1.80;1.70;;;17.60;63.30;;;;;;4956173;28;20047;-21
2022/01/30 01:31:09;;;;;;;1.90;1.80;;;17.60;63.40;;;;;;4955893;28;20048;-20
2022/01/30 01:33:53;;;;;;;1.88;1.77;;;17.60;63.40;;;;;;4956765;28;20416;-20
2022/01/30 01:36:18;;;;;;;1.80;1.70;;;17.60;63.30;;;;;;4954328;28;20047;-21
2022/01/30 01:38:44;;;;;;;1.80;1.70;;;17.60;63.20;;;;;;4955136;28;20051;-19
2022/01/30 01:41:11;;;;;;;1.70;1.60;;;17.60;64.10;;;;;;4956137;28;20047;-19
2022/01/30 01:43:36;;;;;;;1.80;1.70;;;17.60;63.20;;;;;;4952442;28;20055;-20
2022/01/30 01:46:03;;;;;;;1.90;1.80;;;17.60;63.30;;;;;;4954825;28;20043;-20
2022/01/30 01:48:34;;;;;;;2.20;2.00;;;17.60;63.30;;;;;;4955655;28;20420;-19
2022/01/30 01:51:13;;;;;;;1.92;1.83;;;17.60;63.20;;;;;;4955381;28;20393;-22
2022/01/30 01:53:39;;;;;;;1.60;1.50;;;17.50;63.20;;;;;;4955723;28;20071;-19
2022/01/30 01:56:04;;;;;;;1.85;1.75;;;17.50;63.20;;;;;;4953281;28;20051;-20
2022/01/30 01:58:30;;;;;;;1.83;1.73;;;17.50;63.20;;;;;;4954442;28;20520;-20
2022/01/30 02:00:59;;;;;;;1.88;1.77;;;17.50;63.50;;;;;;4954348;28;20047;-20
2022/01/30 02:03:24;;;;;;;1.73;1.63;;;17.50;63.40;;;;;;4963241;28;20133;-20
2022/01/30 02:05:55;;;;;;;1.60;1.50;;;17.50;63.30;;;;;;4953114;28;20062;-22
2022/01/30 02:08:42;;;;;;;1.60;1.50;;;17.50;63.40;;;;;;4954572;28;20531;-19
2022/01/30 02:26:51;;;;;;;1.60;1.50;;;17.40;63.40;;;;;;4950395;28;20134;-19
2022/01/30 02:29:18;;;;;;;1.33;1.23;;;17.50;63.40;;;;;;4971277;28;20051;-20
2022/01/30 02:31:44;;;;;;;1.42;1.40;;;17.40;64.10;;;;;;4955565;28;20167;-20
2022/01/30 02:34:09;;;;;;;1.30;1.30;;;17.40;63.40;;;;;;4955859;28;20065;-21
2022/01/30 02:36:50;;;;;;;1.33;1.17;;;17.40;63.40;;;;;;4955385;28;20421;-20
2022/01/30 02:39:16;;;;;;;1.23;1.23;;;17.40;63.30;;;;;;4954243;28;20058;-20
2022/01/30 02:41:42;;;;;;;1.50;1.40;;;17.40;63.30;;;;;;4954520;28;20043;-20
2022/01/30 02:46:41;;;;;;;1.92;1.17;;;17.40;63.40;;;;;;4955131;28;20046;-22
2022/01/30 02:49:28;;;;;;;1.25;1.15;;;17.40;63.40;;;;;;4951899;28;20619;-19
2022/01/30 02:51:59;;;;;;;1.35;1.25;;;17.40;63.20;;;;;;4952595;28;20039;-20
2022/01/30 02:54:26;;;;;;;1.17;1.08;;;17.40;63.40;;;;;;4954281;28;20051;-21
2022/01/30 02:56:52;;;;;;;1.02;1.02;;;17.40;63.40;;;;;;4954564;28;20043;-19
2022/01/30 02:59:18;;;;;;;1.30;1.20;;;17.30;63.40;;;;;;4958082;28;20046;-20
2022/01/30 03:01:43;;;;;;;1.00;1.00;;;17.30;63.50;;;;;;4958875;28;20090;-21
2022/01/30 03:04:09;;;;;;;1.00;1.00;;;17.30;63.50;;;;;;4959024;28;20086;-21
2022/01/30 03:06:35;;;;;;;1.17;1.10;;;17.30;63.40;;;;;;4959189;28;20042;-20
2022/01/30 03:09:05;;;;;;;1.27;1.20;;;17.30;63.60;;;;;;4957454;28;20051;-20
2022/01/30 03:11:30;;;;;;;1.30;1.20;;;17.30;63.60;;;;;;4959253;28;20526;-20
2022/01/30 03:13:56;;;;;;;1.20;1.10;;;17.30;63.60;;;;;;4957803;28;20114;-21
2022/01/30 03:16:22;;;;;;;1.00;0.88;;;17.30;63.60;;;;;;4958669;28;20047;-21
2022/01/30 03:18:48;;;;;;;1.10;1.00;;;17.30;63.60;;;;;;4958199;28;20058;-19
2022/01/30 03:21:13;;;;;;;1.20;1.10;;;17.30;63.60;;;;;;4956345;28;20509;-19
2022/01/30 03:23:40;;;;;;;1.10;1.10;;;17.30;63.70;;;;;;4955718;28;20540;-21
2022/01/30 03:26:05;;;;;;;1.05;1.05;;;17.30;63.70;;;;;;4958169;28;20472;-19
2022/01/30 03:28:32;;;;;;;1.08;1.08;;;17.30;63.70;;;;;;4955827;28;20058;-21
2022/01/30 03:31:02;;;;;;;1.42;1.10;;;17.30;63.70;;;;;;4957448;28;20039;-20
2022/01/30 03:33:28;;;;;;;1.25;1.15;;;17.30;63.60;;;;;;4957142;28;20058;-20
2022/01/30 03:35:53;;;;;;;1.05;1.00;;;17.30;63.70;;;;;;4957923;28;21800;-20
2022/01/30 03:38:20;;;;;;;1.20;1.10;;;17.30;63.70;;;;;;4955109;28;20058;-20
2022/01/30 03:40:46;;;;;;;1.00;1.00;;;17.30;63.80;;;;;;4957532;28;20043;-20
2022/01/30 03:43:12;;;;;;;1.15;1.05;;;17.30;63.80;;;;;;4957568;28;20050;-19
2022/01/30 03:45:38;;;;;;;0.80;0.80;;;17.30;63.70;;;;;;4958431;28;20050;-20
2022/01/30 03:48:03;;;;;;;0.70;0.70;;;17.30;63.70;;;;;;4958254;28;20047;-19
2022/01/30 03:50:29;;;;;;;1.13;1.13;;;17.30;63.70;;;;;;4957524;28;20061;-21
2022/01/30 03:52:55;;;;;;;0.90;0.90;;;17.30;63.80;;;;;;4957558;28;20039;-21
2022/01/30 03:55:21;;;;;;;1.02;1.02;;;17.30;63.90;;;;;;4957924;28;20070;-20
2022/01/30 03:57:47;;;;;;;1.13;1.13;;;17.30;63.80;;;;;;4957135;28;20098;-20
2022/01/30 04:00:13;;;;;;;0.90;0.90;;;17.30;64.00;;;;;;4958608;28;20050;-20
2022/01/30 04:02:38;;;;;;;0.98;0.98;;;17.30;64.00;;;;;;4957607;28;20862;-19
2022/01/30 04:05:04;;;;;;;1.00;1.00;;;17.30;63.90;;;;;;4957026;28;20052;-20
2022/01/30 04:07:33;;;;;;;0.90;0.90;;;17.30;63.90;;;;;;4957768;28;20420;-20
2022/01/30 04:09:59;;;;;;;0.98;0.98;;;17.30;63.90;;;;;;4954981;28;20201;-19
2022/01/30 04:12:25;;;;;;;0.70;0.70;;;17.30;63.90;;;;;;4957177;28;20130;-20
2022/01/30 04:14:50;;;;;;;0.80;0.80;;;17.30;64.00;;;;;;4957502;28;20572;-21
2022/01/30 04:17:19;;;;;;;0.73;0.70;;;17.30;63.90;;;;;;4957421;28;20043;-21
2022/01/30 04:19:45;;;;;;;0.90;0.90;;;17.30;63.90;;;;;;4956136;28;20047;-20
2022/01/30 04:22:10;;;;;;;0.82;0.82;;;17.30;63.90;;;;;;4956977;28;20053;-20
2022/01/30 04:24:36;;;;;;;0.88;0.88;;;17.30;64.00;;;;;;4955772;28;20138;-19
2022/01/30 04:27:02;;;;;;;0.60;0.60;;;17.30;63.90;;;;;;4957131;28;20051;-20
2022/01/30 04:29:28;;;;;;;0.90;0.90;;;17.20;64.00;;;;;;4957394;28;20055;-20
2022/01/30 04:31:54;;;;;;;0.70;0.70;;;17.30;64.00;;;;;;4955611;28;20412;-20
2022/01/30 04:34:20;;;;;;;0.93;0.93;;;17.20;63.80;;;;;;4957388;28;20074;-20
2022/01/30 04:37:03;;;;;;;1.92;0.80;;;17.30;64.00;;;;;;4956521;28;20039;-19
2022/01/30 04:55:53;;;;;;;0.68;0.68;;;17.20;64.00;;;;;;4953769;28;20186;-19
2022/01/30 05:06:30;;;;;;;0.80;0.80;;;17.20;64.20;;;;;;4952564;28;20047;-20
2022/01/30 05:08:39;;;;;;;0.70;0.70;;;17.20;64.30;;;;;;4952583;28;20504;-21
2022/01/30 05:11:07;;;;;;;0.63;0.63;;;17.20;64.30;;;;;;4951896;28;20424;-20
2022/01/30 05:13:35;;;;;;;0.50;0.50;;;17.20;64.20;;;;;;4955789;28;20109;-20
2022/01/30 05:16:01;;;;;;;2.05;0.73;;;17.20;64.10;;;;;;4955243;28;20047;-19
2022/01/30 05:18:28;;;;;;;0.60;0.60;;;17.20;64.30;;;;;;4957574;28;20165;-19
2022/01/30 05:20:54;;;;;;;0.80;0.80;;;17.20;64.20;;;;;;4956178;28;20070;-20
2022/01/30 05:23:20;;;;;;;0.80;0.80;;;17.20;64.30;;;;;;4956160;28;20043;-20
2022/01/30 05:25:49;;;;;;;0.60;0.60;;;17.20;64.30;;;;;;4957041;28;20058;-19
2022/01/30 05:28:16;;;;;;;0.47;0.47;;;17.20;64.40;;;;;;4953557;28;20548;-21
2022/01/30 05:30:42;;;;;;;0.50;0.50;;;17.20;64.40;;;;;;4955070;28;20161;-20
2022/01/30 05:33:08;;;;;;;0.50;0.50;;;17.20;64.20;;;;;;4956709;28;20042;-21
2022/01/30 05:35:34;;;;;;;0.50;0.50;;;17.20;64.20;;;;;;4954123;28;20055;-19
2022/01/30 05:37:59;;;;;;;0.50;0.50;;;17.10;64.20;;;;;;4954215;28;20051;-19
2022/01/30 05:40:25;;;;;;;0.50;0.50;;;17.10;64.20;;;;;;4956195;28;20055;-21
2022/01/30 05:42:51;;;;;;;0.60;0.60;;;17.10;64.20;;;;;;4956059;28;20051;-20
2022/01/30 05:45:28;;;;;;;0.60;0.60;;;17.10;64.20;;;;;;4957004;28;20054;-20
2022/01/30 05:47:59;;;;;;;0.40;0.40;;;17.10;64.20;;;;;;4952777;28;20047;-19
2022/01/30 05:50:25;;;;;;;0.52;0.52;;;17.10;64.20;;;;;;4945565;28;20130;-19
2022/01/30 05:52:51;;;;;;;0.55;0.55;;;17.10;64.20;;;;;;4956348;28;20074;-21
2022/01/30 05:55:17;;;;;;;0.60;0.60;;;17.10;64.20;;;;;;4955353;28;20086;-21
2022/01/30 05:57:42;;;;;;;0.43;0.43;;;17.10;64.20;;;;;;4961330;28;20043;-20
2022/01/30 06:00:09;;;;;;;0.52;0.52;;;17.10;64.20;;;;;;4955314;28;20051;-20
2022/01/30 06:02:35;;;;;;;0.50;0.50;;;17.10;64.20;;;;;;4954522;28;20046;-21
2022/01/30 06:05:01;;;;;;;0.40;0.40;;;17.10;64.20;;;;;;4955994;28;20051;-19
2022/01/30 06:07:30;;;;;;;0.50;0.50;;;17.10;64.10;;;;;;4956130;28;20055;-19
2022/01/30 06:09:56;;;;;;;0.40;0.40;;;17.10;64.10;;;;;;4952656;28;20070;-21
2022/01/30 06:12:22;;;;;;;0.45;0.45;;;17.10;64.30;;;;;;4955663;28;20500;-21
2022/01/30 06:14:47;;;;;;;0.40;0.40;;;17.10;64.20;;;;;;4955278;28;20217;-20
2022/01/30 06:17:14;;;;;;;0.50;0.50;;;17.10;64.20;;;;;;4953202;28;20051;-20
2022/01/30 06:19:39;;;;;;;0.50;0.50;;;17.10;64.20;;;;;;4956131;28;20616;-20
2022/01/30 06:22:05;;;;;;;1.85;0.47;;;17.10;64.20;;;;;;4955125;28;20469;-21
2022/01/30 06:24:31;;;;;;;0.35;0.35;;;17.10;64.20;;;;;;4954651;28;20207;-21
2022/01/30 06:26:56;;;;;;;0.40;0.40;;;17.10;64.10;;;;;;4955057;28;20051;-20
2022/01/30 06:29:22;;;;;;;0.40;0.40;;;17.10;64.20;;;;;;4955851;28;20043;-19
2022/01/30 06:31:47;;;;;;;0.47;0.30;;;17.10;64.20;;;;;;4955564;28;20039;-21
2022/01/30 06:34:13;;;;;;;0.88;0.57;;;17.10;64.20;;;;;;4954629;28;20142;-20
2022/01/30 06:36:39;;;;;;;0.50;0.50;;;17.10;64.20;;;;;;4970807;28;20662;-20
2022/01/30 06:39:04;;;;;;;0.55;0.55;;;17.10;64.20;;;;;;4953217;28;20047;-21
2022/01/30 06:41:30;;;;;;;0.30;0.30;;;17.10;64.20;;;;;;4936823;28;20532;-21
2022/01/30 06:43:55;;;;;;;0.50;0.50;;;17.10;64.20;;;;;;4953676;28;20058;-20
2022/01/30 06:46:21;;;;;;;0.43;0.43;;;17.10;64.30;;;;;;4955728;28;20067;-20
2022/01/30 06:48:46;;;;;;;0.40;0.40;;;17.10;64.20;;;;;;4956055;28;20103;-20
2022/01/30 06:51:12;;;;;;;0.32;0.32;;;17.10;64.20;;;;;;4955434;28;20134;-22
2022/01/30 06:53:38;;;;;;;0.40;0.40;;;17.10;64.20;;;;;;4953889;28;20058;-20
2022/01/30 06:56:04;;;;;;;0.43;0.43;;;17.10;64.10;;;;;;4955100;28;20066;-21
2022/01/30 06:58:30;;;;;;;0.38;0.38;;;17.10;64.20;;;;;;4952237;28;20054;-20
2022/01/30 07:00:56;;;;;;;0.30;0.30;;;17.10;64.20;;;;;;4955342;28;20105;-20
2022/01/30 07:03:21;;;;;;;0.50;0.40;;;17.10;64.30;;;;;;4954981;28;20078;-19
2022/01/30 07:05:47;;;;;;;0.50;0.50;;;17.10;64.30;;;;;;4955184;28;20051;-20
2022/01/30 07:08:12;;;;;;;0.30;0.30;;;17.00;64.30;;;;;;4953004;28;20063;-21
2022/01/30 07:10:39;;;;;;;0.38;0.38;;;17.10;64.20;;;;;;4947530;28;20043;-22
2022/01/30 07:13:06;;;;;;;0.30;0.30;;;17.10;64.20;;;;;;4951970;28;20583;-23
2022/01/30 07:15:33;;;;;;;0.30;0.30;;;17.10;64.20;;;;;;4954571;28;20050;-20
2022/01/30 07:17:58;;;;;;;0.70;0.60;;;17.10;64.20;;;;;;4952013;28;20142;-20
2022/01/30 07:20:24;;;;;;;0.63;0.40;;;17.10;64.20;;;;;;4949865;28;20215;-20
2022/01/30 07:22:49;;;;;;;0.40;0.40;;;17.10;64.20;;;;;;4953248;28;20134;-19
2022/01/30 07:25:15;;;;;;;1.38;0.32;;;17.10;64.30;;;;;;4951472;28;20040;-20
2022/01/30 07:27:42;;;;;;;0.50;0.50;;;17.10;64.30;;;;;;4952155;28;20047;-21
2022/01/30 07:30:08;;;;;;;0.43;0.32;;;17.00;64.30;;;;;;4954218;28;20058;-19
2022/01/30 07:32:34;;;;;;;0.50;0.40;;;17.00;64.40;;;;;;4953744;28;20047;-20
2022/01/30 07:34:59;;;;;;;0.45;0.45;;;17.00;64.40;;;;;;4953625;28;20067;-21
2022/01/30 07:37:25;;;;;;;0.20;0.20;;;17.00;64.30;;;;;;4954146;28;20067;-20
2022/01/30 07:39:52;;;;;;;0.50;0.45;;;17.00;64.30;;;;;;4950026;28;20102;-20
2022/01/30 07:42:19;;;;;;;0.50;0.50;;;17.00;64.30;;;;;;4953951;28;20066;-20
2022/01/30 07:44:44;;;;;;;0.65;0.47;;;17.00;64.20;;;;;;4957499;28;20543;-19
2022/01/30 07:47:10;;;;;;;0.40;0.40;;;17.00;64.30;;;;;;4957052;28;20043;-22
2022/01/30 07:49:36;;;;;;;0.45;0.40;;;17.00;64.30;;;;;;4958779;28;20405;-20
2022/01/30 07:52:01;;;;;;;0.63;0.40;;;17.00;64.30;;;;;;4957727;28;20043;-19
2022/01/30 07:54:27;;;;;;;0.60;0.60;;;17.00;64.10;;;;;;4957531;28;20139;-21
2022/01/30 07:56:52;;;;;;;1.05;0.50;;;17.00;64.10;;;;;;4957043;28;20069;-21
2022/01/30 07:59:18;;;;;;;0.40;0.40;;;17.00;64.20;;;;;;4957579;28;20051;-23
2022/01/30 08:01:44;;;;;;;1.17;0.40;;;17.00;64.30;;;;;;4955591;28;20134;-20
2022/01/30 08:04:09;;;;;;;0.40;0.40;;;17.00;64.30;;;;;;4955562;28;20531;-20
2022/01/30 08:06:35;;;;;;;0.40;0.40;;;17.00;64.10;;;;;;4958541;28;20053;-22
2022/01/30 08:09:00;;;;;;;0.50;0.40;;;17.00;64.20;;;;;;4956577;28;20043;-19
2022/01/30 08:11:26;;;;;;;0.40;0.40;;;17.00;64.30;;;;;;4956348;28;20547;-22
2022/01/30 08:13:52;;;;;;;0.47;0.47;;;17.00;64.30;;;;;;4958079;28;20043;-20
2022/01/30 08:16:20;;;;;;;0.60;0.52;;;17.00;64.20;;;;;;4957331;28;20066;-20
2022/01/30 08:18:45;;;;;;;0.40;0.40;;;17.00;64.10;;;;;;4956246;28;20090;-20
2022/01/30 08:21:11;;;;;;;0.50;0.38;;;17.00;64.10;;;;;;4955810;28;20059;-24
2022/01/30 08:23:36;;;;;;;0.35;0.35;;;17.00;64.80;;;;;;4956685;28;20051;-20
2022/01/30 08:26:02;;;;;;;0.47;0.47;;;17.00;64.10;;;;;;4954377;28;20081;-21
2022/01/30 08:28:28;;;;;;;0.80;0.60;;;17.00;64.10;;;;;;4956110;28;20524;-20
2022/01/30 08:30:53;;;;;;;0.80;0.40;;;17.00;64.00;;;;;;4956173;28;20050;-20
2022/01/30 08:33:19;;;;;;;0.50;0.50;;;17.00;64.00;;;;;;4955434;28;20043;-21
2022/01/30 08:35:45;;;;;;;0.85;0.40;;;17.00;64.00;;;;;;4955745;28;20055;-20
2022/01/30 08:38:13;;;;;;;0.40;0.40;;;17.00;64.10;;;;;;4955782;28;20473;-20
2022/01/30 08:40:38;;;;;;;0.40;0.38;;;17.00;64.00;;;;;;4955646;28;20105;-21
2022/01/30 08:43:04;;;;;;;0.73;0.60;;;17.00;64.00;;;;;;4956687;28;20047;-20
2022/01/30 08:45:30;;;;;;;0.43;0.40;;;17.00;64.00;;;;;;4958418;28;20505;-20
2022/01/30 08:47:55;;;;;;;0.47;0.40;;;17.00;64.10;;;;;;4957076;28;20099;-22
2022/01/30 08:50:21;;;;;;;0.70;0.50;;;17.00;64.10;;;;;;4955496;28;20051;-22
2022/01/30 08:52:47;;;;;;;0.60;0.40;;;17.00;64.00;;;;;;4956607;28;20039;-22
2022/01/30 08:55:13;;;;;;;0.43;0.40;;;17.00;64.10;;;;;;4953021;28;20139;-21
2022/01/30 08:57:38;;;;;;;0.85;0.60;;;17.00;64.00;;;;;;4956826;28;20070;-20
2022/01/30 09:00:06;;;;;;;0.60;0.40;;;17.00;64.10;;;;;;4956818;28;20051;-22
2022/01/30 09:02:31;;;;;;;0.70;0.50;;;17.00;64.00;;;;;;4955554;28;20498;-21
2022/01/30 09:04:57;;;;;;;0.70;0.50;;;17.00;64.00;;;;;;4954329;28;20382;-20
2022/01/30 09:07:22;;;;;;;0.77;0.40;;;17.00;64.10;;;;;;4955890;28;20129;-22
2022/01/30 09:09:48;;;;;;;0.90;0.40;;;17.00;64.10;;;;;;4958352;28;20527;-21
2022/01/30 09:12:14;;;;;;;0.40;0.40;;;17.00;64.10;;;;;;4955194;28;20040;-20
2022/01/30 09:14:41;;;;;;;0.40;0.40;;;17.00;64.00;;;;;;4939713;28;20047;-21
2022/01/30 09:17:14;;;;;;;0.68;0.50;;;17.00;63.90;;;;;;4952852;28;20404;-21
2022/01/30 09:19:41;;;;;;;0.45;0.32;;;17.00;64.00;;;;;;4954557;28;20043;-20
2022/01/30 09:22:08;;;;;;;1.15;0.50;;;17.00;64.10;;;;;;4956077;28;20059;-21
2022/01/30 09:24:33;;;;;;;0.75;0.35;;;17.00;64.00;;;;;;4955699;28;20122;-22
2022/01/30 09:26:59;;;;;;;0.45;0.45;;;17.00;64.20;;;;;;4611696;28;9999967;-20
2022/01/30 09:29:25;;;;;;;0.70;0.52;;;17.00;64.00;;;;;;4945796;28;20409;-22
2022/01/30 09:31:50;;;;;;;1.25;0.40;;;17.00;64.00;;;;;;4944926;28;20094;-21
2022/01/30 09:34:16;;;;;;;1.95;0.50;;;17.10;63.80;;;;;;4947439;28;20460;-21
2022/01/30 09:36:41;;;;;;;2.42;0.60;;;17.10;63.80;;;;;;4946042;28;20047;-21
2022/01/30 09:39:07;;;;;;;0.63;0.55;;;17.10;63.80;;;;;;4948225;28;20582;-22
2022/01/30 09:41:33;;;;;;;0.68;0.52;;;17.10;64.20;;;;;;4946968;28;20050;-22
2022/01/30 09:44:00;;;;;;;0.57;0.50;;;17.10;64.20;;;;;;4948480;28;20115;-21
2022/01/30 09:46:26;;;;;;;0.82;0.40;;;17.10;63.80;;;;;;4945262;28;20058;-21
2022/01/30 09:48:52;;;;;;;1.80;0.77;;;17.20;63.60;;;;;;4944569;28;20047;-20
2022/01/30 09:51:17;;;;;;;1.80;0.57;;;17.30;63.60;;;;;;4944853;28;20063;-20
2022/01/30 09:53:43;;;;;;;0.77;0.70;;;17.30;63.60;;;;;;4952643;28;20047;-19
2022/01/30 09:56:09;;;;;;;0.63;0.50;;;17.30;63.60;;;;;;4942468;28;20059;-21
2022/01/30 09:58:34;;;;;;;0.95;0.40;;;17.30;63.50;;;;;;4951616;28;20051;-22
2022/01/30 10:01:01;;;;;;;1.13;0.60;;;17.30;63.50;;;;;;4952190;28;20043;-21
2022/01/30 10:03:29;;;;;;;0.50;0.50;;;17.40;63.40;;;;;;4936939;28;20047;-21
2022/01/30 10:06:03;;;;;;;2.47;0.60;;;17.30;63.30;;;;;;4946004;28;20055;-22
2022/01/30 10:08:30;;;;;;;;;;;17.30;63.40;;;;;;4952796;28;20094;-22
2022/01/30 10:11:04;;;;;;;1.33;0.70;;;17.40;63.40;;;;;;4951166;28;19928;-21
2022/01/30 10:13:31;;;;;;;0.80;0.60;;;17.30;63.60;;;;;;4950646;28;20075;-22
2022/01/30 10:16:02;;;;;;;1.17;0.63;;;17.30;63.70;;;;;;4949662;28;20460;-22
2022/01/30 10:18:32;;;;;;;2.40;0.70;;;17.30;63.80;;;;;;4944786;28;23081;-20
2022/01/30 10:20:58;;;;;;;1.17;0.60;;;17.40;63.80;;;;;;4951084;28;20479;-22
2022/01/30 10:23:33;;;;;;;0.75;0.60;;;17.40;63.60;;;;;;4945994;28;20051;-20
2022/01/30 10:26:01;;;;;;;0.70;0.60;;;17.40;63.50;;;;;;4949260;28;20058;-22
2022/01/30 10:28:29;;;;;;;1.38;0.50;;;17.40;63.40;;;;;;4944981;28;20051;-20
2022/01/30 10:31:02;;;;;;;0.98;0.63;;;17.40;63.50;;;;;;4951839;28;20114;-20
2022/01/30 10:33:47;;;;;;;2.55;0.60;;;17.40;63.50;;;;;;4948247;28;20386;-20
2022/01/30 10:36:24;;;;;;;0.93;0.50;;;17.40;63.40;;;;;;4946934;28;20059;-21
2022/01/30 10:39:00;;;;;;;1.40;0.47;;;17.40;63.30;;;;;;4949586;28;20051;-21
2022/01/30 10:41:37;;;;;;;0.60;0.50;;;17.40;63.40;;;;;;4952231;28;20153;-21
2022/01/30 10:44:07;;;;;;;0.80;0.60;;;17.50;63.20;;;;;;4947515;28;20047;-22
2022/01/30 10:46:42;;;;;;;0.70;0.52;;;17.50;63.20;;;;;;4936833;28;20060;-22
2022/01/30 10:49:21;;;;;;;0.80;0.65;;;17.40;63.30;;;;;;4958374;28;20512;-21
2022/01/30 10:51:57;;;;;;;0.70;0.52;;;17.50;63.20;;;;;;4954205;28;20051;-21
2022/01/30 10:54:26;;;;;;;1.13;0.73;;;17.40;63.30;;;;;;4942822;28;20856;-22
2022/01/30 10:57:04;;;;;;;1.05;0.80;;;17.40;63.20;;;;;;4947696;28;20075;-21
2022/01/30 10:59:30;;;;;;;0.82;0.63;;;17.50;63.40;;;;;;4948051;28;20569;-21
2022/01/30 11:01:55;;;;;;;1.08;0.70;;;17.50;63.10;;;;;;4951443;28;20072;-20
2022/01/30 11:04:22;;;;;;;0.90;0.73;;;17.50;62.80;;;;;;4932403;28;20043;-20
2022/01/30 11:06:47;;;;;;;0.73;0.60;;;17.50;63.30;;;;;;4949055;28;20051;-20
2022/01/30 11:09:15;;;;;;;1.10;0.57;;;17.50;63.30;;;;;;4948220;28;20071;-21
2022/01/30 11:11:46;;;;;;;0.93;0.63;;;17.50;63.70;;;;;;4946534;28;20047;-21
2022/01/30 11:16:58;;;;;;;1.58;0.82;;;17.60;64.90;;;;;;4947408;28;20039;-22
2022/01/30 11:19:24;;;;;;;4.32;0.70;;;17.60;65.90;;;;;;4946382;28;20047;-20
2022/01/30 11:21:51;;;;;;;2.65;0.90;;;17.70;66.50;;;;;;4952631;28;20054;-22
2022/01/30 11:24:17;;;;;;;6.38;1.00;;;17.60;66.40;;;;;;4954510;28;20039;-21
2022/01/30 11:26:43;;;;;;;1.83;0.93;;;17.60;66.50;;;;;;4951723;28;20046;-20
2022/01/30 11:29:10;;;;;;;5.18;1.13;;;17.70;66.90;;;;;;4946238;28;20706;-21
2022/01/30 11:31:36;;;;;;;2.25;1.20;;;17.70;66.60;;;;;;4943608;28;20055;-20
2022/01/30 11:34:02;;;;;;;0.77;0.65;;;17.80;67.00;;;;;;4953016;28;20094;-21
2022/01/30 11:36:27;;;;;;;3.03;0.75;;;17.70;66.60;;;;;;4949513;28;20146;-21
2022/01/30 11:38:53;;;;;;;1.92;0.82;;;17.70;67.30;;;;;;4934752;28;20058;-22
2022/01/30 11:41:19;;;;;;;1.13;0.90;;;17.70;67.80;;;;;;4951511;28;20130;-22
2022/01/30 11:44:19;;;;;;;0.80;0.75;;;17.80;67.70;;;;;;4946861;28;20058;-20
2022/01/30 11:46:58;;;;;;;2.85;0.80;;;17.80;67.50;;;;;;4945395;28;20176;-21
2022/01/30 11:49:36;;;;;;;1.00;0.90;;;17.70;66.90;;;;;;4947304;28;20081;-20
2022/01/30 11:52:02;;;;;;;1.17;0.75;;;17.70;66.50;;;;;;4947001;28;20134;-21
2022/01/30 11:54:45;;;;;;;0.68;0.65;;;17.70;66.90;;;;;;4941887;28;20102;-20
2022/01/30 11:57:22;;;;;;;2.05;1.15;;;17.80;68.20;;;;;;4946296;28;20059;-21
2022/01/30 11:59:55;;;;;;;2.05;0.90;;;17.80;67.20;;;;;;4941633;28;20040;-21
2022/01/30 12:02:25;;;;;;;1.92;1.02;;;17.80;67.20;;;;;;4946525;28;20158;-22
2022/01/30 12:05:00;;;;;;;1.50;0.75;;;17.80;67.30;;;;;;4948624;28;20035;-21
2022/01/30 12:07:48;;;;;;;0.93;0.70;;;17.90;67.40;;;;;;4943746;28;20161;-21
2022/01/30 12:10:24;;;;;;;1.10;0.82;;;17.90;67.30;;;;;;4944005;28;20523;-21
2022/01/30 12:12:59;;;;;;;1.73;1.02;;;17.90;67.20;;;;;;4945469;28;20078;-21
2022/01/30 12:15:41;;;;;;;1.15;0.95;;;17.90;67.00;;;;;;4941643;28;20047;-20
2022/01/30 12:18:07;;;;;;;0.82;0.73;;;17.90;66.80;;;;;;4946811;28;20138;-20
2022/01/30 12:21:08;;;;;;;2.83;0.70;;;17.90;66.70;;;;;;4948884;28;20142;-21
2022/01/30 12:23:35;;;;;;;3.53;1.10;;;17.90;66.50;;;;;;4948721;28;20059;-21
2022/01/30 12:26:05;;;;;;;3.15;0.73;;;18.00;66.40;;;;;;4945228;28;20571;-22
2022/01/30 12:28:44;;;;;;;2.65;0.90;;;18.00;66.20;;;;;;4947180;28;20069;-22
2022/01/30 12:31:34;;;;;;;1.52;0.90;;;18.00;66.00;;;;;;4944304;28;20051;-21
2022/01/30 12:34:03;;;;;;;1.60;1.00;;;18.00;66.10;;;;;;4951733;28;20056;-21
2022/01/30 12:36:31;;;;;;;3.72;0.88;;;18.00;66.20;;;;;;4949888;28;20054;-21
2022/01/30 12:39:07;;;;;;;2.28;0.95;;;18.00;65.90;;;;;;4957354;28;20102;-21
2022/01/30 12:41:36;;;;;;;1.10;0.90;;;18.10;65.90;;;;;;4955301;28;20059;-20
2022/01/30 12:44:14;;;;;;;1.00;0.90;;;18.10;65.70;;;;;;4960761;28;20578;-22
2022/01/30 12:46:48;;;;;;;2.22;1.20;;;18.10;65.60;;;;;;4956910;28;20054;-22
2022/01/30 12:49:18;;;;;;;1.30;1.08;;;18.10;65.60;;;;;;4958316;28;20051;-19
2022/01/30 12:51:49;;;;;;;1.63;0.90;;;18.10;65.60;;;;;;4955520;28;20051;-21
2022/01/30 12:54:29;;;;;;;2.95;0.80;;;18.10;65.50;;;;;;4955591;28;20043;-20
2022/01/30 12:56:57;;;;;;;2.08;0.70;;;18.00;65.30;;;;;;4952879;28;20059;-19
2022/01/30 12:59:25;;;;;;;1.40;1.00;;;18.00;65.00;;;;;;4938952;28;20044;-21
2022/01/30 13:01:51;;;;;;;3.63;1.02;;;18.00;65.00;;;;;;4938465;28;20224;-21
2022/01/30 13:04:19;;;;;;;1.70;0.80;;;18.00;65.10;;;;;;4939813;28;20043;-22
2022/01/30 13:06:47;;;;;;;2.00;1.08;;;18.00;65.10;;;;;;4948314;28;20051;-21
2022/01/30 13:09:25;;;;;;;1.08;0.98;;;17.90;65.00;;;;;;4956922;28;20043;-21
2022/01/30 13:11:54;;;;;;;1.63;0.80;;;17.90;65.10;;;;;;4958319;28;20134;-21
2022/01/30 13:14:20;;;;;;;1.20;0.85;;;17.90;65.20;;;;;;4954865;28;20051;-21
2022/01/30 13:16:50;;;;;;;1.23;0.93;;;17.90;65.20;;;;;;4957971;28;20058;-21
2022/01/30 13:19:35;;;;;;;1.08;1.00;;;17.90;65.00;;;;;;4958462;28;20403;-22
2022/01/30 13:22:02;;;;;;;2.47;0.90;;;17.80;64.90;;;;;;4957620;28;20054;-21
2022/01/30 13:24:28;;;;;;;2.05;1.15;;;17.80;65.00;;;;;;4952779;28;20046;-22
2022/01/30 13:27:04;;;;;;;2.63;0.80;;;17.80;65.10;;;;;;4941896;28;20047;-21
2022/01/30 13:29:34;;;;;;;1.38;0.80;;;17.80;65.00;;;;;;4958051;28;20555;-23
2022/01/30 13:32:01;;;;;;;2.20;0.68;;;17.80;65.10;;;;;;4957759;28;20054;-20
2022/01/30 13:34:28;;;;;;;1.33;0.80;;;17.80;65.10;;;;;;4953354;28;20346;-20
2022/01/30 13:37:08;;;;;;;3.38;1.00;;;17.80;65.00;;;;;;4944202;28;20057;-21
2022/01/30 13:39:48;;;;;;;1.25;1.10;;;17.70;65.00;;;;;;4954917;28;20058;-22
2022/01/30 13:42:47;;;;;;;1.58;1.00;;;17.70;64.90;;;;;;4956500;28;20496;-22
2022/01/30 13:47:59;;;;;;;0.90;0.65;;;17.70;64.90;;;;;;4949902;28;20043;-21
2022/01/30 13:50:47;;;;;;;3.05;0.90;;;17.70;64.90;;;;;;4955717;28;20047;-21
2022/01/30 13:53:21;;;;;;;1.48;0.60;;;17.70;64.80;;;;;;4947568;28;20141;-21
2022/01/30 13:56:11;;;;;;;1.23;0.70;;;17.70;64.70;;;;;;4946323;28;20047;-20
2022/01/30 13:58:37;;;;;;;1.60;0.98;;;17.70;64.60;;;;;;4955765;28;20106;-22